Tennessee, Arkansas
Current Conditions -  °F | °C
As of 11:53 AM on Saturday 20 Dec 2014 (Local Time) from KLLQ Reporting Station
Clear Clear  
Wind Chill: 50°   Ceiling: Unl
Heat Index: 50°   Visibility: 10mi
Dew Point: 37°   Wind: 5mph
Humidity: 61%   Direction: 350°N
Pressure: 30.24"   Gusts: NA
Location:  33.5819°N, 91.7907°W
Report Text: KLLQ 201753Z AUTO 35004KT 10SM CLR 10/03 A3024 RMK AO2 SLP240 T01000028 10100 20022 58009
Loading
Personal Weather Stations






























Interactive Weather Map New forecast layout! Learn more

10-Day Weather Forecast

Advertisements
Track Severe Weather on mobile